Time;durP1;ratioP1;P1;durP2;ratioP2;P2;SDS_P1;SDS_P2;PMS_P1;PMS_P2;Temp;Humidity;BMP_temperature;BMP_pressure;BME280_temperature;BME280_humidity;BME280_pressure;Samples;Min_cycle;Max_cycle;Signal;HPM_P1;HPM_P2
2022/07/05 00:01:00;;;;;;;9.90;7.30;;;;;;;21.68;65.82;100471.77;104397;1276;108403;-75
2022/07/05 00:03:29;;;;;;;9.80;7.10;;;;;;;21.70;65.77;100472.91;104439;1276;99697;-75
2022/07/05 00:05:57;;;;;;;9.30;7.10;;;;;;;21.67;65.82;100473.11;104292;1277;138687;-75
2022/07/05 00:08:26;;;;;;;8.60;6.50;;;;;;;21.61;65.81;100466.73;104401;1275;94385;-76
2022/07/05 00:10:53;;;;;;;8.10;6.30;;;;;;;21.55;65.74;100470.19;104254;1277;138464;-75
2022/07/05 00:13:21;;;;;;;8.40;6.30;;;;;;;21.51;65.43;100466.08;104384;1276;108308;-75
2022/07/05 00:15:52;;;;;;;8.10;6.10;;;;;;;21.50;65.48;100466.90;104312;1277;98361;-76
2022/07/05 00:18:20;;;;;;;9.20;6.50;;;;;;;21.50;65.13;100469.48;104288;1277;137462;-75
2022/07/05 00:20:48;;;;;;;9.20;6.90;;;;;;;21.46;64.90;100468.99;104356;1277;94824;-76
2022/07/05 00:23:16;;;;;;;8.40;6.20;;;;;;;21.42;64.94;100465.29;104281;1277;139121;-75
2022/07/05 00:25:44;;;;;;;7.80;5.90;;;;;;;21.43;64.75;100467.98;104355;1276;108586;-74
2022/07/05 00:28:13;;;;;;;8.20;5.70;;;;;;;21.43;64.34;100468.11;104175;1277;138447;-75
2022/07/05 00:30:41;;;;;;;8.40;6.00;;;;;;;21.45;64.10;100465.79;104241;1277;108813;-76
2022/07/05 00:33:10;;;;;;;8.60;6.00;;;;;;;21.44;63.91;100464.64;104272;1276;94267;-74
2022/07/05 00:35:38;;;;;;;7.70;5.30;;;;;;;21.43;63.90;100467.05;104215;1276;138674;-74
2022/07/05 00:38:05;;;;;;;8.00;5.20;;;;;;;21.43;63.61;100467.20;104362;1277;108069;-74
2022/07/05 00:40:33;;;;;;;7.50;5.20;;;;;;;21.44;64.13;100469.15;104334;1276;138390;-73
2022/07/05 00:43:02;;;;;;;6.70;4.90;;;;;;;21.41;63.84;100473.85;104362;1277;108869;-75
2022/07/05 00:45:30;;;;;;;7.50;4.90;;;;;;;21.34;63.59;100481.56;104267;1277;94560;-76
2022/07/05 00:47:58;;;;;;;7.60;5.00;;;;;;;21.32;63.23;100483.71;104228;1276;141133;-75
2022/07/05 00:50:26;;;;;;;7.10;4.80;;;;;;;21.31;63.09;100487.40;104327;1277;109767;-74
2022/07/05 00:52:56;;;;;;;7.60;5.00;;;;;;;21.27;62.98;100491.82;104237;1275;138346;-75
2022/07/05 00:55:24;;;;;;;7.50;5.70;;;;;;;21.26;63.10;100493.03;104323;1275;108289;-75
2022/07/05 00:57:54;;;;;;;8.20;5.20;;;;;;;21.24;63.65;100495.32;104323;1277;94343;-75
2022/07/05 01:00:22;;;;;;;7.60;5.50;;;;;;;21.20;63.70;100495.73;104467;1277;137848;-74
2022/07/05 01:02:50;;;;;;;9.50;5.80;;;;;;;21.19;64.00;100492.56;104272;1277;108643;-75
2022/07/05 01:05:19;;;;;;;7.90;5.50;;;;;;;21.15;64.26;100493.40;104260;1277;138220;-74
2022/07/05 01:07:47;;;;;;;8.40;6.10;;;;;;;21.11;64.62;100491.65;104443;1277;108917;-74
2022/07/05 01:10:15;;;;;;;9.10;6.00;;;;;;;21.09;64.65;100496.32;104061;1275;138463;-74
2022/07/05 01:12:43;;;;;;;8.40;5.70;;;;;;;21.05;65.02;100505.41;104401;1275;94305;-75
2022/07/05 01:15:11;;;;;;;8.80;5.90;;;;;;;21.01;64.97;100506.56;104441;1274;108394;-74
2022/07/05 01:17:38;;;;;;;8.50;6.30;;;;;;;21.04;65.09;100513.78;104410;1274;138574;-74
2022/07/05 01:20:07;;;;;;;8.70;6.60;;;;;;;21.08;65.11;100518.25;104415;1275;110233;-75
2022/07/05 01:22:56;;;;;;;8.80;6.60;;;;;;;21.05;65.11;100520.00;104368;1275;137959;-75
2022/07/05 01:25:25;;;;;;;8.20;6.40;;;;;;;21.00;65.47;100512.24;104425;1275;95886;-75
2022/07/05 01:27:54;;;;;;;9.00;6.00;;;;;;;20.92;65.89;100510.81;104532;1274;108390;-75
2022/07/05 01:30:23;;;;;;;10.00;5.90;;;;;;;20.65;66.68;100511.55;104662;1274;138643;-74
2022/07/05 01:32:51;;;;;;;7.90;5.70;;;;;;;20.44;67.70;100516.34;104480;1274;108837;-74
2022/07/05 01:35:23;;;;;;;;;;;;;;;20.25;67.89;100519.88;104386;1275;138648;-75
2022/07/05 01:37:51;;;;;;;;;;;;;;;20.10;68.66;100519.96;104590;1274;94936;-75
2022/07/05 01:40:20;;;;;;;;;;;;;;;19.99;69.18;100521.23;104265;1274;125305;-75
2022/07/05 01:42:48;;;;;;;9.90;5.90;;;;;;;19.89;69.56;100519.89;104514;1275;99696;-75
2022/07/05 01:45:38;;;;;;;9.00;5.70;;;;;;;19.83;69.70;100520.59;104374;1277;108773;-75
2022/07/05 01:48:11;;;;;;;11.20;7.00;;;;;;;19.85;69.76;100527.27;104275;1275;137881;-76
2022/07/05 01:50:49;;;;;;;10.60;7.00;;;;;;;20.04;68.93;100535.86;104204;1276;94995;-75
2022/07/05 01:53:24;;;;;;;8.20;5.70;;;;;;;20.10;68.83;100539.80;104313;1277;138073;-74
2022/07/05 01:55:52;;;;;;;10.50;5.70;;;;;;;19.95;69.47;100541.09;104480;1277;97611;-74
2022/07/05 01:58:21;;;;;;;10.90;5.70;;;;;;;19.84;69.91;100532.78;104293;1274;138751;-76
2022/07/05 02:00:52;;;;;;;7.50;4.80;;;;;;;19.70;70.61;100529.27;104496;1277;94331;-74
2022/07/05 02:03:20;;;;;;;7.80;4.40;;;;;;;19.61;70.55;100528.98;104517;1275;94374;-76
2022/07/05 02:06:10;;;;;;;7.80;4.50;;;;;;;19.54;71.28;100527.26;104242;1277;138748;-75
2022/07/05 02:08:38;;;;;;;6.30;5.00;;;;;;;19.40;71.33;100523.74;104387;1277;100199;-74
2022/07/05 02:11:09;;;;;;;8.10;5.10;;;;;;;19.34;71.51;100526.26;104456;1275;137946;-74
2022/07/05 02:13:38;;;;;;;8.60;5.60;;;;;;;19.32;71.59;100531.42;104443;1276;94400;-75
2022/07/05 02:16:06;;;;;;;7.70;5.50;;;;;;;19.29;71.59;100531.09;104453;1275;137883;-75
2022/07/05 02:18:35;;;;;;;7.50;5.00;;;;;;;19.28;71.70;100530.39;104482;1277;108660;-74
2022/07/05 02:21:03;;;;;;;6.70;4.70;;;;;;;19.28;72.19;100528.81;104580;1275;98410;-75
2022/07/05 02:23:31;;;;;;;7.10;4.70;;;;;;;19.24;72.29;100527.29;104418;1277;138549;-75
2022/07/05 02:25:59;;;;;;;7.20;4.80;;;;;;;19.16;72.42;100528.25;104480;1275;94495;-75
2022/07/05 02:28:28;;;;;;;6.70;5.40;;;;;;;19.13;72.70;100531.69;104541;1277;137957;-75
2022/07/05 02:30:56;;;;;;;9.20;5.10;;;;;;;19.10;72.53;100533.52;104679;1277;105999;-76
2022/07/05 02:33:25;;;;;;;6.50;4.80;;;;;;;19.07;72.67;100532.77;104629;1274;100256;-75
2022/07/05 02:35:53;;;;;;;8.10;4.80;;;;;;;19.03;72.38;100534.05;104450;1277;138673;-75
2022/07/05 02:38:21;;;;;;;8.20;4.80;;;;;;;19.04;72.57;100532.59;104652;1274;94454;-75
2022/07/05 02:40:49;;;;;;;6.60;4.60;;;;;;;19.04;72.36;100538.34;104449;1277;138615;-75
2022/07/05 02:43:17;;;;;;;8.30;4.80;;;;;;;19.05;72.47;100540.05;104504;1277;108233;-73
2022/07/05 02:45:46;;;;;;;6.10;4.50;;;;;;;19.03;72.51;100537.16;104601;1274;99582;-75
2022/07/05 02:48:14;;;;;;;6.60;4.50;;;;;;;19.02;72.43;100536.11;104454;1277;138057;-76
2022/07/05 02:50:43;;;;;;;10.00;4.50;;;;;;;18.97;72.62;100539.10;104534;1274;94676;-75
2022/07/05 02:53:11;;;;;;;7.00;4.30;;;;;;;18.92;72.65;100543.73;104490;1274;138486;-75
2022/07/05 02:55:39;;;;;;;6.30;3.90;;;;;;;18.88;72.75;100546.47;104553;1274;108405;-76
2022/07/05 02:58:07;;;;;;;6.10;4.40;;;;;;;18.84;73.23;100549.90;104374;1277;139808;-75
2022/07/05 03:00:35;;;;;;;6.80;3.60;;;;;;;18.77;73.21;100552.33;104366;1277;108700;-75
2022/07/05 03:03:04;;;;;;;7.40;4.50;;;;;;;18.76;73.35;100557.75;104723;1277;94305;-75
2022/07/05 03:05:32;;;;;;;7.10;4.80;;;;;;;18.76;73.08;100565.85;104460;1277;140509;-75
2022/07/05 03:08:03;;;;;;;7.10;4.70;;;;;;;18.77;73.04;100572.98;104628;1277;108317;-75
2022/07/05 03:10:34;;;;;;;6.70;4.10;;;;;;;18.81;72.82;100583.17;104511;1275;138848;-75
2022/07/05 03:13:03;;;;;;;6.10;3.90;;;;;;;18.87;72.53;100590.92;104600;1275;109186;-75
2022/07/05 03:15:31;;;;;;;7.20;3.70;;;;;;;18.92;72.33;100591.96;104425;1277;94389;-76
2022/07/05 03:18:00;;;;;;;7.70;4.20;;;;;;;18.96;72.10;100587.41;104412;1277;138724;-75
2022/07/05 03:20:30;;;;;;;7.30;4.40;;;;;;;18.97;71.74;100589.86;104568;1277;108161;-75
2022/07/05 03:22:58;;;;;;;8.10;4.30;;;;;;;18.97;71.58;100583.92;104450;1277;138113;-75
2022/07/05 03:25:32;;;;;;;7.90;4.00;;;;;;;18.94;72.10;100577.60;104575;1275;109074;-74
2022/07/05 03:28:01;;;;;;;6.70;3.80;;;;;;;18.80;72.26;100586.48;104543;1275;139079;-74
2022/07/05 03:30:29;;;;;;;6.10;3.50;;;;;;;18.77;72.09;100589.55;104653;1277;94318;-76
2022/07/05 03:32:57;;;;;;;6.40;3.40;;;;;;;18.75;72.06;100591.63;104643;1274;107353;-76
2022/07/05 03:35:27;;;;;;;5.40;3.60;;;;;;;18.78;71.82;100592.18;104437;1277;138532;-75
2022/07/05 03:37:56;;;;;;;7.50;3.40;;;;;;;18.76;72.06;100586.17;104557;1277;108872;-75
2022/07/05 03:40:24;;;;;;;6.00;3.70;;;;;;;18.72;72.13;100583.71;104462;1275;138926;-75
2022/07/05 03:42:52;;;;;;;7.10;3.80;;;;;;;18.68;71.91;100583.38;104610;1274;94292;-75
2022/07/05 03:45:20;;;;;;;5.40;3.20;;;;;;;18.65;71.84;100582.68;104534;1276;108342;-75
2022/07/05 03:47:48;;;;;;;6.70;3.40;;;;;;;18.60;71.85;100579.19;104556;1275;140148;-75
2022/07/05 03:50:16;;;;;;;5.20;3.30;;;;;;;18.58;72.04;100577.70;104623;1274;108780;-74
2022/07/05 03:52:44;;;;;;;5.30;3.00;;;;;;;18.56;71.62;100574.89;104536;1274;138997;-74
2022/07/05 03:55:12;;;;;;;6.50;3.80;;;;;;;18.59;71.60;100581.05;104668;1275;94325;-75
2022/07/05 03:57:40;;;;;;;6.20;3.90;;;;;;;18.63;71.36;100580.61;104559;1275;108380;-75
2022/07/05 04:00:10;;;;;;;6.40;3.50;;;;;;;18.66;71.26;100585.70;104351;1277;138524;-75
2022/07/05 04:02:43;;;;;;;5.60;3.40;;;;;;;18.66;71.09;100590.16;104501;1277;109927;-76
2022/07/05 04:05:13;;;;;;;5.00;3.00;;;;;;;18.66;71.40;100590.52;104311;1277;137678;-75
2022/07/05 04:07:53;;;;;;;6.40;3.30;;;;;;;18.65;71.45;100590.23;104572;1275;95107;-75
2022/07/05 04:10:25;;;;;;;6.10;3.60;;;;;;;18.63;70.98;100586.19;104558;1275;138252;-75
2022/07/05 04:12:54;;;;;;;7.50;3.50;;;;;;;18.60;71.16;100588.72;104675;1274;99370;-75
2022/07/05 04:15:22;;;;;;;7.90;3.40;;;;;;;18.61;70.42;100591.33;104511;1274;108816;-75
2022/07/05 04:17:55;;;;;;;5.60;3.30;;;;;;;18.64;70.11;100597.45;104433;1277;138335;-76
2022/07/05 04:20:25;;;;;;;5.00;2.70;;;;;;;18.64;70.33;100603.92;104577;1275;94327;-76
2022/07/05 04:22:55;;;;;;;5.10;2.50;;;;;;;18.65;69.91;100603.50;104489;1274;138430;-76
2022/07/05 04:25:24;;;;;;;8.30;2.80;;;;;;;18.66;68.88;100605.09;104564;1276;99469;-76
2022/07/05 04:28:06;;;;;;;6.20;2.50;;;;;;;18.71;68.41;100612.35;104531;1274;137925;-75
2022/07/05 04:30:35;;;;;;;5.40;3.10;;;;;;;18.71;68.01;100615.05;104687;1275;94165;-75
2022/07/05 04:33:03;;;;;;;6.40;2.70;;;;;;;18.71;67.68;100611.63;104627;1274;94317;-75
2022/07/05 04:35:33;;;;;;;6.40;2.70;;;;;;;18.72;67.48;100614.09;104455;1275;137803;-76
2022/07/05 04:38:01;;;;;;;6.80;2.80;;;;;;;18.80;67.69;100613.84;104584;1274;99405;-77
2022/07/05 04:40:30;;;;;;;6.20;2.40;;;;;;;18.80;66.95;100610.39;104555;1275;138288;-76
2022/07/05 04:42:59;;;;;;;4.90;2.50;;;;;;;18.79;66.04;100612.98;104487;1277;94464;-76
2022/07/05 04:45:27;;;;;;;7.10;2.80;;;;;;;18.80;66.06;100620.13;104535;1277;94500;-75
2022/07/05 04:47:55;;;;;;;5.80;2.80;;;;;;;18.85;66.67;100625.94;104553;1277;137624;-75
2022/07/05 04:50:24;;;;;;;7.00;2.60;;;;;;;18.89;65.73;100617.83;104558;1275;99914;-76
2022/07/05 04:52:53;;;;;;;5.70;2.40;;;;;;;18.96;66.05;100613.11;105634;1274;138151;-77
2022/07/05 04:55:21;;;;;;;4.70;2.10;;;;;;;18.99;66.49;100612.61;104631;1275;94203;-76
2022/07/05 04:57:48;;;;;;;5.00;2.20;;;;;;;18.99;66.59;100611.70;104586;1275;94419;-76
2022/07/05 05:00:16;;;;;;;5.10;2.40;;;;;;;18.98;66.64;100608.16;104522;1274;137506;-75
2022/07/05 05:02:44;;;;;;;5.10;2.20;;;;;;;18.99;65.49;100605.38;104387;1274;243016;-74
2022/07/05 05:05:12;;;;;;;6.30;2.50;;;;;;;19.02;65.25;100595.87;104507;1275;138826;-74
2022/07/05 05:07:45;;;;;;;5.40;2.60;;;;;;;18.97;64.70;100598.66;104697;1274;95544;-77
2022/07/05 05:10:13;;;;;;;5.00;2.10;;;;;;;18.89;64.72;100601.44;104643;1274;137830;-75
2022/07/05 05:12:41;;;;;;;5.70;2.20;;;;;;;18.87;65.26;100603.69;104591;1274;108850;-77
2022/07/05 05:15:09;;;;;;;6.30;2.30;;;;;;;18.89;65.27;100603.27;104617;1274;98386;-74
2022/07/05 05:17:42;;;;;;;5.40;2.30;;;;;;;18.93;65.62;100611.48;104479;1274;138268;-76
2022/07/05 05:20:17;;;;;;;5.40;2.40;;;;;;;18.97;65.73;100611.26;104601;1275;94303;-76
2022/07/05 05:22:46;;;;;;;6.40;2.20;;;;;;;19.03;65.42;100609.46;104366;1278;139046;-75
2022/07/05 05:25:15;;;;;;;5.10;2.60;;;;;;;19.13;65.22;100606.57;104613;1274;108395;-76
2022/07/05 05:27:48;;;;;;;5.50;2.80;;;;;;;19.24;65.23;100608.10;104530;1274;99507;-75
2022/07/05 05:30:17;;;;;;;10.00;2.70;;;;;;;19.34;65.02;100601.52;104386;1274;138053;-74
2022/07/05 05:32:45;;;;;;;8.10;2.70;;;;;;;19.43;65.23;100603.88;104522;1274;94652;-75
2022/07/05 05:35:14;;;;;;;5.00;2.50;;;;;;;19.54;65.14;100607.35;104309;1278;137937;-75
2022/07/05 05:37:55;;;;;;;6.40;2.60;;;;;;;19.58;65.11;100608.42;104469;1274;108568;-75
2022/07/05 05:40:24;;;;;;;5.90;2.60;;;;;;;19.63;64.89;100611.71;104368;1274;141698;-74
2022/07/05 05:42:53;;;;;;;4.40;2.20;;;;;;;19.63;64.67;100610.98;104508;1274;108806;-74
2022/07/05 05:45:22;;;;;;;5.70;2.70;;;;;;;19.63;64.79;100601.59;104504;1274;94334;-75
2022/07/05 05:47:53;;;;;;;5.60;2.60;;;;;;;19.69;64.19;100594.56;104421;1274;138218;-75
2022/07/05 05:50:36;;;;;;;6.80;3.20;;;;;;;19.77;64.38;100591.39;104555;1274;108210;-75
2022/07/05 05:53:04;;;;;;;6.90;3.10;;;;;;;19.87;64.20;100589.88;104468;1274;138054;-74
2022/07/05 05:55:33;;;;;;;6.20;2.80;;;;;;;19.95;64.17;100586.34;104542;1274;108800;-75
2022/07/05 05:58:14;;;;;;;8.90;2.80;;;;;;;20.04;64.39;100583.23;104458;1274;138027;-75
2022/07/05 06:00:43;;;;;;;7.80;2.40;;;;;;;20.07;63.97;100586.29;104544;1274;94239;-74
2022/07/05 06:03:11;;;;;;;6.40;2.60;;;;;;;20.06;64.18;100589.63;104503;1274;108297;-76
2022/07/05 06:05:39;;;;;;;6.00;2.60;;;;;;;20.08;64.30;100596.33;104467;1274;138142;-75
2022/07/05 06:08:07;;;;;;;6.00;3.10;;;;;;;20.15;64.22;100599.67;104536;1274;107758;-75
2022/07/05 06:10:38;;;;;;;5.30;3.00;;;;;;;20.21;63.96;100599.68;104386;1274;138191;-75
2022/07/05 06:13:09;;;;;;;7.20;2.60;;;;;;;20.24;63.73;100598.08;104535;1274;94343;-75
2022/07/05 06:15:36;;;;;;;4.80;2.30;;;;;;;20.32;63.56;100599.32;104874;1277;108354;-75
2022/07/05 06:18:06;;;;;;;7.00;2.90;;;;;;;20.42;63.45;100598.49;104438;1274;138308;-74
2022/07/05 06:20:36;;;;;;;6.20;2.70;;;;;;;20.44;62.82;100600.02;104522;1274;107862;-75
2022/07/05 06:23:05;;;;;;;;;;;;;;;20.43;63.19;100596.64;104546;1274;140814;-76
2022/07/05 06:25:33;;;;;;;7.20;3.20;;;;;;;20.45;63.63;100596.38;104494;1274;94330;-76
2022/07/05 06:28:05;;;;;;;8.50;3.00;;;;;;;20.50;63.72;100599.04;104451;1274;138347;-76
2022/07/05 06:30:36;;;;;;;8.50;3.40;;;;;;;20.57;63.06;100600.46;104636;1274;98416;-76
2022/07/05 06:33:04;;;;;;;5.90;3.30;;;;;;;20.64;62.99;100599.48;105833;1274;109029;-76
2022/07/05 06:35:32;;;;;;;7.20;2.90;;;;;;;20.74;62.93;100600.27;104371;1277;137840;-75
2022/07/05 06:38:04;;;;;;;6.30;3.00;;;;;;;20.79;62.74;100596.84;104601;1274;94373;-76
2022/07/05 06:40:35;;;;;;;5.40;2.90;;;;;;;20.85;63.62;100591.62;104443;1274;137989;-76
2022/07/05 06:43:06;;;;;;;7.80;3.50;;;;;;;20.84;62.15;100597.05;104524;1274;97606;-75
2022/07/05 06:45:45;;;;;;;9.40;3.20;;;;;;;20.94;62.86;100593.71;104399;1277;108823;-75
2022/07/05 06:48:13;;;;;;;6.10;3.00;;;;;;;21.10;61.93;100599.69;104323;1274;138185;-76
2022/07/05 06:50:43;;;;;;;7.10;2.80;;;;;;;21.23;61.16;100603.86;104518;1274;94241;-75
2022/07/05 06:53:12;;;;;;;7.40;3.40;;;;;;;21.34;61.79;100605.65;104354;1275;137793;-76
2022/07/05 06:55:46;;;;;;;8.00;3.20;;;;;;;21.44;61.58;100599.19;104624;1274;98676;-75
2022/07/05 06:58:23;;;;;;;8.70;3.30;;;;;;;21.53;61.94;100604.38;104435;1274;140528;-75
2022/07/05 07:00:51;;;;;;;6.90;3.70;;;;;;;21.61;60.87;100610.86;104666;1274;95032;-75
2022/07/05 07:03:39;;;;;;;8.30;3.50;;;;;;;21.70;60.55;100614.02;104575;1274;94241;-75
2022/07/05 07:06:27;;;;;;;6.40;2.90;;;;;;;21.80;60.25;100614.29;104585;1274;107319;-76
2022/07/05 07:11:42;;;;;;;7.60;3.70;;;;;;;21.91;60.11;100617.33;104463;1274;137697;-75
2022/07/05 07:14:10;;;;;;;6.80;3.20;;;;;;;21.96;59.63;100620.75;104668;1274;94325;-75
2022/07/05 07:16:38;;;;;;;6.00;3.00;;;;;;;21.99;59.67;100617.46;104349;1277;140941;-74
2022/07/05 07:19:06;;;;;;;6.40;3.10;;;;;;;22.08;60.07;100615.39;104665;1274;109378;-74
2022/07/05 07:21:40;;;;;;;7.00;3.30;;;;;;;22.16;59.59;100618.98;104730;1274;99598;-74
2022/07/05 07:24:09;;;;;;;9.00;3.60;;;;;;;22.22;59.14;100625.81;104580;1274;137804;-77
2022/07/05 07:29:24;;;;;;;6.90;3.20;;;;;;;22.30;58.64;100619.96;104485;1274;137904;-74
2022/07/05 07:31:52;;;;;;;8.30;3.20;;;;;;;22.32;58.27;100614.58;104679;1274;108379;-75
2022/07/05 07:34:20;;;;;;;8.70;3.70;;;;;;;22.34;59.56;100607.16;104573;1274;138369;-75
2022/07/05 07:36:49;;;;;;;9.00;3.60;;;;;;;22.41;59.77;100606.69;104637;1274;108726;-75
2022/07/05 07:39:17;;;;;;;6.30;3.30;;;;;;;22.52;59.12;100605.73;104603;1274;94325;-76
2022/07/05 07:41:45;;;;;;;6.20;3.10;;;;;;;22.62;58.82;100609.58;104451;1274;139054;-75
2022/07/05 07:44:13;;;;;;;8.40;3.30;;;;;;;22.72;58.89;100607.20;104481;1274;107341;-74
2022/07/05 07:46:41;;;;;;;7.40;3.20;;;;;;;22.79;57.71;100606.50;104433;1274;138123;-74
2022/07/05 07:49:13;;;;;;;6.10;2.90;;;;;;;22.84;58.06;100604.30;104598;1274;107877;-74
2022/07/05 07:51:41;;;;;;;7.80;3.60;;;;;;;22.93;58.02;100602.41;104612;1274;94885;-73
2022/07/05 07:54:10;;;;;;;7.10;3.10;;;;;;;22.98;57.97;100604.19;104666;1274;137713;-76
2022/07/05 07:56:37;;;;;;;6.20;2.90;;;;;;;23.06;58.29;100604.15;104625;1274;106983;-76
2022/07/05 07:59:05;;;;;;;10.10;3.90;;;;;;;23.17;58.14;100598.97;104392;1274;138913;-75
2022/07/05 08:01:33;;;;;;;8.30;4.20;;;;;;;23.39;56.53;100596.39;104403;1276;109197;-74
2022/07/05 08:04:11;;;;;;;6.50;3.60;;;;;;;23.54;56.56;100593.95;104515;1274;138005;-76
2022/07/05 08:06:39;;;;;;;7.30;4.00;;;;;;;23.66;56.31;100589.02;105150;1274;94193;-75
2022/07/05 08:09:07;;;;;;;8.40;3.60;;;;;;;23.89;56.02;100589.25;104501;1274;108399;-76
2022/07/05 08:11:43;;;;;;;8.80;3.80;;;;;;;24.12;55.23;100591.40;104294;1274;138279;-76
2022/07/05 08:14:11;;;;;;;9.00;4.20;;;;;;;24.33;54.79;100590.13;104582;1274;105807;-75
2022/07/05 08:16:39;;;;;;;8.10;3.70;;;;;;;24.50;53.60;100590.16;104635;1274;139187;-75
2022/07/05 08:21:56;;;;;;;9.30;3.60;;;;;;;24.84;52.68;100594.27;104608;1274;107419;-75
2022/07/05 08:24:24;;;;;;;9.00;3.60;;;;;;;25.04;52.64;100598.98;104536;1274;138119;-75
2022/07/05 08:26:51;;;;;;;9.70;4.10;;;;;;;25.23;52.13;100604.48;104711;1274;109565;-75
2022/07/05 08:29:19;;;;;;;7.40;3.50;;;;;;;25.41;51.06;100602.77;104449;1274;137990;-75
2022/07/05 08:31:52;;;;;;;6.70;3.60;;;;;;;25.58;51.07;100602.28;104508;1274;94626;-74
2022/07/05 08:34:20;;;;;;;7.40;3.40;;;;;;;25.77;50.45;100599.05;104598;1274;138229;-75
2022/07/05 08:36:48;;;;;;;7.10;3.40;;;;;;;25.81;50.29;100595.52;104498;1274;98530;-75
2022/07/05 08:39:16;;;;;;;6.70;3.40;;;;;;;25.80;50.59;100595.97;104491;1274;108885;-74
2022/07/05 08:41:49;;;;;;;9.40;3.40;;;;;;;25.93;50.34;100593.98;104609;1274;138419;-73
2022/07/05 08:44:20;;;;;;;7.30;3.20;;;;;;;26.08;49.44;100591.44;104650;1274;94212;-73
2022/07/05 08:46:52;;;;;;;8.90;3.40;;;;;;;26.13;49.44;100591.86;104931;1274;137652;-74
2022/07/05 08:49:24;;;;;;;6.50;3.20;;;;;;;26.16;49.42;100591.96;104457;1274;99400;-74
2022/07/05 08:51:53;;;;;;;7.80;3.20;;;;;;;26.34;48.99;100590.59;104507;1273;108629;-73
2022/07/05 08:54:24;;;;;;;7.20;3.00;;;;;;;26.49;48.37;100592.14;104447;1274;138279;-74
2022/07/05 08:56:52;;;;;;;8.10;3.30;;;;;;;26.62;47.66;100589.30;104762;1274;94137;-74
2022/07/05 08:59:39;;;;;;;6.60;3.10;;;;;;;26.64;47.88;100590.19;104505;1274;137730;-73
2022/07/05 09:02:15;;;;;;;7.20;3.20;;;;;;;26.65;47.67;100585.96;104695;1274;99414;-74
2022/07/05 09:04:45;;;;;;;7.40;3.00;;;;;;;26.65;48.39;100585.02;104411;1274;138888;-73
2022/07/05 09:07:17;;;;;;;7.80;3.40;;;;;;;26.54;47.58;100591.33;104507;1277;94415;-73
2022/07/05 09:09:47;;;;;;;6.90;3.30;;;;;;;26.40;47.85;100592.17;104679;1274;95596;-74
2022/07/05 09:12:15;;;;;;;7.80;3.80;;;;;;;26.36;48.47;100598.14;104364;1274;137767;-74
2022/07/05 09:14:54;;;;;;;9.80;3.50;;;;;;;26.50;48.99;100597.14;104640;1274;99437;-73
2022/07/05 09:17:23;;;;;;;7.00;3.60;;;;;;;26.70;48.35;100597.70;104417;1274;137754;-73
2022/07/05 09:20:12;;;;;;;8.10;3.50;;;;;;;26.74;47.45;100597.35;104498;1274;94351;-74
2022/07/05 09:22:46;;;;;;;8.10;3.90;;;;;;;26.75;47.89;100597.79;104440;1274;138401;-74
2022/07/05 09:25:27;;;;;;;8.90;3.70;;;;;;;26.94;47.62;100599.71;104469;1274;108309;-74
2022/07/05 09:28:04;;;;;;;10.30;4.10;;;;;;;27.20;47.02;100598.01;104651;1274;99766;-75
2022/07/05 09:30:41;;;;;;;10.00;4.30;;;;;;;27.40;47.20;100595.10;104521;1274;107959;-74
2022/07/05 09:33:14;;;;;;;9.60;4.00;;;;;;;28.12;45.12;100593.91;104545;1274;94283;-74
2022/07/05 09:35:54;;;;;;;10.60;4.20;;;;;;;28.78;43.50;100589.80;104467;1274;138290;-74
2022/07/05 09:38:28;;;;;;;7.80;3.90;;;;;;;29.43;42.56;100584.71;104585;1274;108595;-73
2022/07/05 09:40:58;;;;;;;7.50;3.50;;;;;;;29.97;40.45;100582.17;104440;1274;138535;-75
2022/07/05 09:43:29;;;;;;;8.90;3.50;;;;;;;29.98;40.35;100582.27;104527;1274;108855;-74
2022/07/05 09:46:02;;;;;;;9.50;3.70;;;;;;;29.90;40.45;100587.17;104524;1274;94321;-73
2022/07/05 09:48:32;;;;;;;6.80;3.10;;;;;;;29.77;39.99;100581.94;104506;1275;138618;-73
2022/07/05 09:51:13;;;;;;;8.70;3.80;;;;;;;29.58;39.95;100582.07;105033;1276;107591;-73
2022/07/05 09:54:02;;;;;;;7.50;3.10;;;;;;;29.18;40.48;100581.75;104361;1277;140625;-74
2022/07/05 09:56:47;;;;;;;6.60;3.10;;;;;;;28.93;41.52;100579.23;104218;1276;108209;-76
2022/07/05 09:59:21;;;;;;;7.30;3.20;;;;;;;28.77;41.62;100577.71;104154;1277;137959;-74
2022/07/05 10:01:51;;;;;;;6.80;3.50;;;;;;;28.58;41.90;100578.80;104279;1277;94354;-72
2022/07/05 10:04:20;;;;;;;7.90;3.40;;;;;;;28.37;41.99;100581.77;104631;1277;137965;-74
2022/07/05 10:06:49;;;;;;;7.50;3.10;;;;;;;28.18;42.70;100577.08;104353;1277;98814;-74
2022/07/05 10:09:18;;;;;;;6.20;3.00;;;;;;;28.01;43.31;100581.13;104200;1277;108904;-74
2022/07/05 10:11:46;;;;;;;7.20;3.00;;;;;;;27.82;43.59;100579.29;104166;1276;138492;-74
2022/07/05 10:14:17;;;;;;;9.20;3.00;;;;;;;27.62;43.53;100581.38;104228;1277;94311;-74
2022/07/05 10:16:50;;;;;;;6.80;3.00;;;;;;;27.48;45.14;100583.36;104233;1276;138462;-73
2022/07/05 10:19:21;;;;;;;6.20;2.70;;;;;;;27.41;45.08;100584.21;104436;1277;99527;-74
2022/07/05 10:21:50;;;;;;;7.20;2.90;;;;;;;27.33;44.99;100586.11;104923;1277;108804;-73
2022/07/05 10:24:38;;;;;;;5.80;2.90;;;;;;;27.23;44.95;100585.39;104306;1277;137756;-73
2022/07/05 10:27:10;;;;;;;7.30;3.20;;;;;;;27.16;45.21;100590.60;104130;1277;140143;-74
2022/07/05 10:29:39;;;;;;;9.60;3.40;;;;;;;27.05;45.16;100591.95;104316;1276;108361;-74
2022/07/05 10:32:10;;;;;;;7.40;3.40;;;;;;;27.04;44.92;100592.22;104299;1277;99372;-74
2022/07/05 10:34:39;;;;;;;6.10;3.00;;;;;;;27.05;45.26;100590.73;104202;1277;138089;-76
2022/07/05 10:37:28;;;;;;;7.40;3.20;;;;;;;27.08;45.19;100589.15;104267;1277;94843;-75
2022/07/05 10:39:59;;;;;;;6.60;3.00;;;;;;;27.07;45.46;100592.13;105650;1277;138067;-75
2022/07/05 10:42:32;;;;;;;9.50;3.50;;;;;;;27.10;46.02;100584.70;104383;1277;109184;-75
2022/07/05 10:45:02;;;;;;;6.60;3.10;;;;;;;27.09;45.80;100586.33;104292;1277;138367;-75
2022/07/05 10:47:30;;;;;;;6.20;2.80;;;;;;;27.06;45.42;100587.52;104393;1277;108980;-75
2022/07/05 10:50:05;;;;;;;5.90;3.20;;;;;;;27.08;45.36;100581.71;104306;1277;94830;-74
2022/07/05 10:52:33;;;;;;;7.50;3.10;;;;;;;27.13;45.39;100583.73;104144;1277;137724;-74
2022/07/05 10:55:16;;;;;;;8.60;3.10;;;;;;;27.22;44.90;100580.32;104369;1276;109398;-75
2022/07/05 10:58:16;;;;;;;6.30;3.00;;;;;;;27.32;44.95;100587.09;104149;1277;138568;-73
2022/07/05 11:00:48;;;;;;;6.90;2.60;;;;;;;27.42;44.62;100583.80;104241;1277;109216;-73
2022/07/05 11:03:33;;;;;;;6.30;2.80;;;;;;;27.52;45.19;100583.04;104229;1277;138864;-75
2022/07/05 11:06:02;;;;;;;7.90;2.70;;;;;;;27.69;45.39;100582.31;104499;1277;94804;-73
2022/07/05 11:08:51;;;;;;;6.90;2.30;;;;;;;27.69;44.59;100584.81;104378;1277;109418;-72
2022/07/05 11:11:27;;;;;;;7.30;2.30;;;;;;;27.66;44.88;100584.08;104468;1276;98495;-73
2022/07/05 11:13:58;;;;;;;4.90;2.20;;;;;;;27.61;45.05;100577.96;104872;1276;107755;-74
2022/07/05 11:16:33;;;;;;;4.60;2.20;;;;;;;27.56;44.99;100579.75;104185;1277;137876;-73
2022/07/05 11:19:10;;;;;;;5.50;2.10;;;;;;;27.47;44.69;100577.69;104355;1277;94947;-72
2022/07/05 11:21:59;;;;;;;7.20;2.40;;;;;;;27.39;44.78;100571.92;104319;1277;137824;-73
2022/07/05 11:24:29;;;;;;;5.00;2.30;;;;;;;27.41;44.99;100566.03;104349;1277;99544;-73
2022/07/05 11:26:59;;;;;;;7.90;2.40;;;;;;;27.46;45.21;100567.02;104226;1277;137923;-73
2022/07/05 11:29:43;;;;;;;5.20;2.10;;;;;;;27.47;45.16;100565.60;104340;1277;94440;-73
2022/07/05 11:32:17;;;;;;;8.10;2.60;;;;;;;27.44;45.21;100563.90;104496;1277;94332;-73
2022/07/05 11:34:47;;;;;;;4.60;2.10;;;;;;;27.37;44.54;100564.15;104216;1277;137742;-74
2022/07/05 11:37:21;;;;;;;5.20;2.20;;;;;;;27.26;44.33;100564.84;104297;1277;99359;-72